Impacts METAR Board
IDs:

KSSF - San Antonio/Stinson, TX, US

Updated at: 0200 UTC 15 Aug 2020
Potential Impact None Slight Moderate High
Time 14/14Z 14/15Z 14/16Z 14/17Z 14/18Z 14/19Z 14/20Z 14/21Z 14/22Z 14/23Z 15/00Z 15/01Z 15/02Z
Temp79 84 88 91 95 97 99 101 102 101 100 95 89
Dewpt74 70 67 63 61 58 58 57 56 55 57 59 61
Altim29.96 29.96 29.96 29.95 29.93 29.91 29.87 29.85 29.83 29.82 29.81 29.82 29.84
VIS10 10 10 10 10 10 10 10 10 10 10 10 10
CIG-- -- -- -- -- -- -- -- -- -- -- -- --
CoverCLRCLRCLRCLRCLRCLRCLRCLRCLRCLRCLRCLRCLR
FltCatVFRVFRVFRVFRVFRVFRVFRVFRVFRVFRVFRVFRVFR
WX--------------------------
WDir210210180190200250160180120160140150150
WSpd9 7 8 10 6 6 7 6 8 11 9 9 7
WGst-- -- -- 15 -- 15 -- -- -- 17 -- -- --
Raw hourly METARs
KSSF 141353Z 21009KT 10SM CLR 26/23 A2996 RMK AO2 SLP133 T02610233 $
KSSF 141453Z 21007KT 10SM CLR 29/21 A2996 RMK AO2 SLP132 T02890211 50005 $
KSSF 141553Z 18008KT 10SM CLR 31/19 A2996 RMK AO2 SLP131 T03110194 $
KSSF 141653Z 19010G15KT 10SM CLR 33/17 A2995 RMK AO2 SLP126 T03280172 $
KSSF 141753Z 20006KT 10SM CLR 35/16 A2993 RMK AO2 SLP120 T03500161 10350 20228 58011 $
KSSF 141853Z 25006G15KT 10SM CLR 36/14 A2991 RMK AO2 SLP113 T03610144 $
KSSF 141953Z 16007KT 10SM CLR 37/14 A2987 RMK AO2 SLP102 T03720144 $
KSSF 142053Z 18006KT 10SM CLR 38/14 A2985 RMK AO2 SLP092 T03830139 58028 $
KSSF 142153Z 12008KT 10SM CLR 39/13 A2983 RMK AO2 SLP085 T03890133 $
KSSF 142253Z 16011G17KT 10SM CLR 38/13 A2982 RMK AO2 SLP082 T03830128 $
KSSF 142353Z 14009KT 10SM CLR 38/14 A2981 RMK AO2 SLP079 T03780139 10394 20344 56013 $
KSSF 150053Z 15009KT 10SM CLR 35/15 A2982 RMK AO2 SLP083 T03500150 $
KSSF 150153Z 15007KT 10SM CLR 32/16 A2984 RMK AO2 SLP091 T03170161 $